sensor_id;sensor_type;location;lat;lon;timestamp;P1;durP1;ratioP1;P2;durP2;ratioP2
31037;SDS011;17702;47.590;7.666;2022-09-01T00:02:03;8.48;;;5.65;;
31037;SDS011;17702;47.590;7.666;2022-09-01T00:04:32;5.72;;;5.28;;
31037;SDS011;17702;47.590;7.666;2022-09-01T00:07:05;6.10;;;5.55;;
31037;SDS011;17702;47.590;7.666;2022-09-01T00:09:32;6.13;;;5.57;;
31037;SDS011;17702;47.590;7.666;2022-09-01T00:11:58;7.22;;;5.85;;
31037;SDS011;17702;47.590;7.666;2022-09-01T00:14:26;5.88;;;5.38;;
31037;SDS011;17702;47.590;7.666;2022-09-01T00:16:54;6.28;;;5.07;;
31037;SDS011;17702;47.590;7.666;2022-09-01T00:19:21;7.30;;;5.78;;
31037;SDS011;17702;47.590;7.666;2022-09-01T00:21:47;5.95;;;5.25;;
31037;SDS011;17702;47.590;7.666;2022-09-01T00:24:14;6.00;;;5.40;;
31037;SDS011;17702;47.590;7.666;2022-09-01T00:26:41;6.28;;;5.55;;
31037;SDS011;17702;47.590;7.666;2022-09-01T00:29:08;5.95;;;5.53;;
31037;SDS011;17702;47.590;7.666;2022-09-01T00:31:33;7.25;;;5.55;;
31037;SDS011;17702;47.590;7.666;2022-09-01T00:33:59;10.38;;;6.20;;
31037;SDS011;17702;47.590;7.666;2022-09-01T00:36:26;9.38;;;5.05;;
31037;SDS011;17702;47.590;7.666;2022-09-01T00:38:52;8.05;;;5.90;;
31037;SDS011;17702;47.590;7.666;2022-09-01T00:41:19;7.25;;;5.57;;
31037;SDS011;17702;47.590;7.666;2022-09-01T00:43:49;6.50;;;5.45;;
31037;SDS011;17702;47.590;7.666;2022-09-01T00:46:18;6.05;;;5.45;;
31037;SDS011;17702;47.590;7.666;2022-09-01T00:48:56;6.45;;;4.72;;
31037;SDS011;17702;47.590;7.666;2022-09-01T00:51:26;5.43;;;5.03;;
31037;SDS011;17702;47.590;7.666;2022-09-01T00:53:52;5.45;;;4.95;;
31037;SDS011;17702;47.590;7.666;2022-09-01T00:56:19;7.47;;;5.30;;
31037;SDS011;17702;47.590;7.666;2022-09-01T00:58:46;6.05;;;5.55;;
31037;SDS011;17702;47.590;7.666;2022-09-01T01:01:12;5.47;;;4.97;;
31037;SDS011;17702;47.590;7.666;2022-09-01T01:03:38;5.47;;;5.07;;
31037;SDS011;17702;47.590;7.666;2022-09-01T01:06:08;7.00;;;5.38;;
31037;SDS011;17702;47.590;7.666;2022-09-01T01:08:36;8.85;;;6.20;;
31037;SDS011;17702;47.590;7.666;2022-09-01T01:11:08;8.82;;;5.93;;
31037;SDS011;17702;47.590;7.666;2022-09-01T01:16:34;10.50;;;6.13;;
31037;SDS011;17702;47.590;7.666;2022-09-01T01:19:00;10.73;;;6.13;;
31037;SDS011;17702;47.590;7.666;2022-09-01T01:21:33;8.77;;;6.28;;
31037;SDS011;17702;47.590;7.666;2022-09-01T01:26:47;6.65;;;6.00;;
31037;SDS011;17702;47.590;7.666;2022-09-01T01:29:13;9.68;;;7.70;;
31037;SDS011;17702;47.590;7.666;2022-09-01T01:31:39;7.13;;;6.25;;
31037;SDS011;17702;47.590;7.666;2022-09-01T01:34:05;6.05;;;5.60;;
31037;SDS011;17702;47.590;7.666;2022-09-01T01:36:32;9.27;;;6.22;;
31037;SDS011;17702;47.590;7.666;2022-09-01T01:39:14;6.15;;;5.50;;
31037;SDS011;17702;47.590;7.666;2022-09-01T01:41:42;6.30;;;5.38;;
31037;SDS011;17702;47.590;7.666;2022-09-01T01:44:13;7.95;;;6.45;;
31037;SDS011;17702;47.590;7.666;2022-09-01T01:46:45;6.50;;;6.00;;
31037;SDS011;17702;47.590;7.666;2022-09-01T01:49:14;8.10;;;6.38;;
31037;SDS011;17702;47.590;7.666;2022-09-01T01:51:44;9.35;;;6.18;;
31037;SDS011;17702;47.590;7.666;2022-09-01T01:54:11;7.20;;;6.18;;
31037;SDS011;17702;47.590;7.666;2022-09-01T01:56:37;7.10;;;6.50;;
31037;SDS011;17702;47.590;7.666;2022-09-01T01:59:06;8.40;;;6.90;;
31037;SDS011;17702;47.590;7.666;2022-09-01T02:01:33;8.93;;;5.72;;
31037;SDS011;17702;47.590;7.666;2022-09-01T02:04:00;9.13;;;6.07;;
31037;SDS011;17702;47.590;7.666;2022-09-01T02:06:28;6.13;;;5.63;;
31037;SDS011;17702;47.590;7.666;2022-09-01T02:08:58;7.28;;;6.68;;
31037;SDS011;17702;47.590;7.666;2022-09-01T02:11:27;8.90;;;6.65;;
31037;SDS011;17702;47.590;7.666;2022-09-01T02:13:54;8.95;;;6.20;;
31037;SDS011;17702;47.590;7.666;2022-09-01T02:16:21;10.65;;;6.75;;
31037;SDS011;17702;47.590;7.666;2022-09-01T02:18:49;7.45;;;6.45;;
31037;SDS011;17702;47.590;7.666;2022-09-01T02:21:16;8.98;;;6.60;;
31037;SDS011;17702;47.590;7.666;2022-09-01T02:23:55;7.45;;;6.50;;
31037;SDS011;17702;47.590;7.666;2022-09-01T02:26:27;11.88;;;6.75;;
31037;SDS011;17702;47.590;7.666;2022-09-01T02:29:03;7.18;;;6.22;;
31037;SDS011;17702;47.590;7.666;2022-09-01T02:31:33;6.45;;;6.05;;
31037;SDS011;17702;47.590;7.666;2022-09-01T02:34:03;6.15;;;5.65;;
31037;SDS011;17702;47.590;7.666;2022-09-01T02:36:31;7.35;;;6.68;;
31037;SDS011;17702;47.590;7.666;2022-09-01T02:39:01;7.57;;;6.88;;
31037;SDS011;17702;47.590;7.666;2022-09-01T02:41:27;6.95;;;6.35;;
31037;SDS011;17702;47.590;7.666;2022-09-01T02:43:56;10.45;;;6.80;;
31037;SDS011;17702;47.590;7.666;2022-09-01T02:46:22;10.82;;;7.20;;
31037;SDS011;17702;47.590;7.666;2022-09-01T02:48:48;7.72;;;7.07;;
31037;SDS011;17702;47.590;7.666;2022-09-01T02:51:16;8.15;;;6.90;;
31037;SDS011;17702;47.590;7.666;2022-09-01T02:53:44;7.03;;;6.10;;
31037;SDS011;17702;47.590;7.666;2022-09-01T02:56:16;13.50;;;6.72;;
31037;SDS011;17702;47.590;7.666;2022-09-01T02:58:42;8.10;;;6.30;;
31037;SDS011;17702;47.590;7.666;2022-09-01T03:01:16;8.75;;;6.93;;
31037;SDS011;17702;47.590;7.666;2022-09-01T03:03:50;8.77;;;7.25;;
31037;SDS011;17702;47.590;7.666;2022-09-01T03:06:17;8.57;;;7.05;;
31037;SDS011;17702;47.590;7.666;2022-09-01T03:08:45;10.68;;;6.53;;
31037;SDS011;17702;47.590;7.666;2022-09-01T03:11:12;15.15;;;8.20;;
31037;SDS011;17702;47.590;7.666;2022-09-01T03:13:38;7.78;;;6.97;;
31037;SDS011;17702;47.590;7.666;2022-09-01T03:16:05;7.20;;;6.60;;
31037;SDS011;17702;47.590;7.666;2022-09-01T03:18:32;9.90;;;6.65;;
31037;SDS011;17702;47.590;7.666;2022-09-01T03:20:58;9.63;;;7.18;;
31037;SDS011;17702;47.590;7.666;2022-09-01T03:23:26;10.07;;;7.28;;
31037;SDS011;17702;47.590;7.666;2022-09-01T03:25:53;8.75;;;7.75;;
31037;SDS011;17702;47.590;7.666;2022-09-01T03:28:19;8.00;;;7.25;;
31037;SDS011;17702;47.590;7.666;2022-09-01T03:30:46;10.23;;;6.95;;
31037;SDS011;17702;47.590;7.666;2022-09-01T03:33:13;7.43;;;6.68;;
31037;SDS011;17702;47.590;7.666;2022-09-01T03:35:41;8.68;;;6.70;;
31037;SDS011;17702;47.590;7.666;2022-09-01T03:38:08;13.23;;;7.38;;
31037;SDS011;17702;47.590;7.666;2022-09-01T03:40:36;8.38;;;7.05;;
31037;SDS011;17702;47.590;7.666;2022-09-01T03:43:03;9.38;;;7.50;;
31037;SDS011;17702;47.590;7.666;2022-09-01T03:45:33;8.10;;;7.40;;
31037;SDS011;17702;47.590;7.666;2022-09-01T03:48:02;8.68;;;7.65;;
31037;SDS011;17702;47.590;7.666;2022-09-01T03:50:34;8.70;;;7.15;;
31037;SDS011;17702;47.590;7.666;2022-09-01T03:53:06;9.18;;;6.60;;
31037;SDS011;17702;47.590;7.666;2022-09-01T03:55:32;8.95;;;7.18;;
31037;SDS011;17702;47.590;7.666;2022-09-01T03:58:02;8.30;;;7.38;;
31037;SDS011;17702;47.590;7.666;2022-09-01T04:00:37;8.35;;;7.38;;
31037;SDS011;17702;47.590;7.666;2022-09-01T04:03:06;11.23;;;7.63;;
31037;SDS011;17702;47.590;7.666;2022-09-01T04:05:35;8.40;;;7.38;;
31037;SDS011;17702;47.590;7.666;2022-09-01T04:08:03;9.02;;;7.45;;
31037;SDS011;17702;47.590;7.666;2022-09-01T04:10:31;10.30;;;7.53;;
31037;SDS011;17702;47.590;7.666;2022-09-01T04:12:59;11.02;;;7.60;;
31037;SDS011;17702;47.590;7.666;2022-09-01T04:15:25;8.73;;;6.95;;
31037;SDS011;17702;47.590;7.666;2022-09-01T04:17:52;12.18;;;7.15;;
31037;SDS011;17702;47.590;7.666;2022-09-01T04:20:43;7.95;;;7.18;;
31037;SDS011;17702;47.590;7.666;2022-09-01T04:25:51;12.45;;;7.40;;
31037;SDS011;17702;47.590;7.666;2022-09-01T04:28:19;9.77;;;7.20;;
31037;SDS011;17702;47.590;7.666;2022-09-01T04:30:53;9.68;;;6.95;;
31037;SDS011;17702;47.590;7.666;2022-09-01T04:33:21;8.77;;;7.60;;
31037;SDS011;17702;47.590;7.666;2022-09-01T04:35:52;8.95;;;8.00;;
31037;SDS011;17702;47.590;7.666;2022-09-01T04:38:21;9.18;;;7.63;;
31037;SDS011;17702;47.590;7.666;2022-09-01T04:40:48;8.27;;;7.47;;
31037;SDS011;17702;47.590;7.666;2022-09-01T04:43:15;10.93;;;8.43;;
31037;SDS011;17702;47.590;7.666;2022-09-01T04:45:41;12.25;;;8.60;;
31037;SDS011;17702;47.590;7.666;2022-09-01T04:48:07;11.65;;;8.00;;
31037;SDS011;17702;47.590;7.666;2022-09-01T04:50:33;8.38;;;7.68;;
31037;SDS011;17702;47.590;7.666;2022-09-01T04:52:59;7.88;;;7.10;;
31037;SDS011;17702;47.590;7.666;2022-09-01T04:55:27;9.10;;;8.20;;
31037;SDS011;17702;47.590;7.666;2022-09-01T04:57:55;9.68;;;8.77;;
31037;SDS011;17702;47.590;7.666;2022-09-01T05:00:23;12.80;;;9.27;;
31037;SDS011;17702;47.590;7.666;2022-09-01T05:02:51;8.98;;;8.13;;
31037;SDS011;17702;47.590;7.666;2022-09-01T05:05:19;9.98;;;8.80;;
31037;SDS011;17702;47.590;7.666;2022-09-01T05:07:47;10.18;;;9.18;;
31037;SDS011;17702;47.590;7.666;2022-09-01T05:10:16;15.38;;;12.63;;
31037;SDS011;17702;47.590;7.666;2022-09-01T05:12:46;16.50;;;12.15;;
31037;SDS011;17702;47.590;7.666;2022-09-01T05:15:13;14.98;;;12.70;;
31037;SDS011;17702;47.590;7.666;2022-09-01T05:17:41;13.15;;;11.63;;
31037;SDS011;17702;47.590;7.666;2022-09-01T05:20:08;16.38;;;11.55;;
31037;SDS011;17702;47.590;7.666;2022-09-01T05:25:16;13.00;;;9.93;;
31037;SDS011;17702;47.590;7.666;2022-09-01T05:27:43;14.68;;;11.38;;
31037;SDS011;17702;47.590;7.666;2022-09-01T05:30:13;12.43;;;10.43;;
31037;SDS011;17702;47.590;7.666;2022-09-01T05:32:42;11.55;;;10.35;;
31037;SDS011;17702;47.590;7.666;2022-09-01T05:35:09;11.65;;;10.45;;
31037;SDS011;17702;47.590;7.666;2022-09-01T05:37:35;11.25;;;8.95;;
31037;SDS011;17702;47.590;7.666;2022-09-01T05:40:03;12.50;;;9.77;;
31037;SDS011;17702;47.590;7.666;2022-09-01T05:42:40;12.00;;;9.98;;
31037;SDS011;17702;47.590;7.666;2022-09-01T05:45:07;10.52;;;9.52;;
31037;SDS011;17702;47.590;7.666;2022-09-01T05:47:34;15.75;;;10.88;;
31037;SDS011;17702;47.590;7.666;2022-09-01T05:50:00;16.15;;;9.45;;
31037;SDS011;17702;47.590;7.666;2022-09-01T05:52:27;11.13;;;10.02;;
31037;SDS011;17702;47.590;7.666;2022-09-01T05:54:57;10.90;;;9.80;;
31037;SDS011;17702;47.590;7.666;2022-09-01T05:57:24;11.05;;;9.98;;
31037;SDS011;17702;47.590;7.666;2022-09-01T05:59:50;12.68;;;9.90;;
31037;SDS011;17702;47.590;7.666;2022-09-01T06:02:18;10.73;;;9.70;;
31037;SDS011;17702;47.590;7.666;2022-09-01T06:04:45;10.07;;;9.05;;
31037;SDS011;17702;47.590;7.666;2022-09-01T06:07:13;11.45;;;10.02;;
31037;SDS011;17702;47.590;7.666;2022-09-01T06:09:46;11.88;;;9.18;;
31037;SDS011;17702;47.590;7.666;2022-09-01T06:12:13;10.90;;;8.75;;
31037;SDS011;17702;47.590;7.666;2022-09-01T06:14:47;13.02;;;9.60;;
31037;SDS011;17702;47.590;7.666;2022-09-01T06:17:15;9.88;;;8.88;;
31037;SDS011;17702;47.590;7.666;2022-09-01T06:19:43;10.20;;;8.25;;
31037;SDS011;17702;47.590;7.666;2022-09-01T06:22:09;27.67;;;9.77;;
31037;SDS011;17702;47.590;7.666;2022-09-01T06:24:35;21.80;;;9.75;;
31037;SDS011;17702;47.590;7.666;2022-09-01T06:27:04;15.45;;;9.70;;
31037;SDS011;17702;47.590;7.666;2022-09-01T06:29:33;10.07;;;8.85;;
31037;SDS011;17702;47.590;7.666;2022-09-01T06:32:06;13.48;;;9.75;;
31037;SDS011;17702;47.590;7.666;2022-09-01T06:34:40;10.88;;;9.77;;
31037;SDS011;17702;47.590;7.666;2022-09-01T06:37:09;17.10;;;9.45;;
31037;SDS011;17702;47.590;7.666;2022-09-01T06:39:36;10.43;;;9.35;;
31037;SDS011;17702;47.590;7.666;2022-09-01T06:42:02;15.95;;;9.90;;
31037;SDS011;17702;47.590;7.666;2022-09-01T06:44:28;9.52;;;8.57;;
31037;SDS011;17702;47.590;7.666;2022-09-01T06:46:56;15.23;;;9.55;;
31037;SDS011;17702;47.590;7.666;2022-09-01T06:49:24;9.48;;;8.48;;
31037;SDS011;17702;47.590;7.666;2022-09-01T06:51:57;9.20;;;7.95;;
31037;SDS011;17702;47.590;7.666;2022-09-01T06:54:27;11.65;;;8.82;;
31037;SDS011;17702;47.590;7.666;2022-09-01T06:56:58;9.23;;;8.25;;
31037;SDS011;17702;47.590;7.666;2022-09-01T06:59:27;11.98;;;7.85;;
31037;SDS011;17702;47.590;7.666;2022-09-01T07:01:57;7.60;;;6.90;;
31037;SDS011;17702;47.590;7.666;2022-09-01T07:04:26;7.78;;;7.07;;
31037;SDS011;17702;47.590;7.666;2022-09-01T07:06:53;7.63;;;5.80;;
31037;SDS011;17702;47.590;7.666;2022-09-01T07:09:19;11.13;;;6.57;;
31037;SDS011;17702;47.590;7.666;2022-09-01T07:11:45;7.95;;;7.35;;
31037;SDS011;17702;47.590;7.666;2022-09-01T07:14:11;8.07;;;6.30;;
31037;SDS011;17702;47.590;7.666;2022-09-01T07:16:40;6.82;;;6.00;;
31037;SDS011;17702;47.590;7.666;2022-09-01T07:19:06;6.82;;;6.07;;
31037;SDS011;17702;47.590;7.666;2022-09-01T07:21:41;7.57;;;6.25;;
31037;SDS011;17702;47.590;7.666;2022-09-01T07:24:08;6.68;;;6.18;;
31037;SDS011;17702;47.590;7.666;2022-09-01T07:26:34;6.47;;;5.88;;
31037;SDS011;17702;47.590;7.666;2022-09-01T07:29:01;6.90;;;6.13;;
31037;SDS011;17702;47.590;7.666;2022-09-01T07:31:31;5.72;;;5.20;;
31037;SDS011;17702;47.590;7.666;2022-09-01T07:34:03;7.68;;;6.90;;
31037;SDS011;17702;47.590;7.666;2022-09-01T07:36:31;7.75;;;6.93;;
31037;SDS011;17702;47.590;7.666;2022-09-01T07:38:57;6.38;;;5.78;;
31037;SDS011;17702;47.590;7.666;2022-09-01T07:41:25;6.10;;;5.43;;
31037;SDS011;17702;47.590;7.666;2022-09-01T07:43:51;6.88;;;6.22;;
31037;SDS011;17702;47.590;7.666;2022-09-01T07:46:19;8.50;;;6.05;;
31037;SDS011;17702;47.590;7.666;2022-09-01T07:48:47;6.13;;;5.63;;
31037;SDS011;17702;47.590;7.666;2022-09-01T07:51:15;6.85;;;6.20;;
31037;SDS011;17702;47.590;7.666;2022-09-01T07:53:44;6.88;;;6.28;;
31037;SDS011;17702;47.590;7.666;2022-09-01T07:56:12;7.60;;;6.00;;
31037;SDS011;17702;47.590;7.666;2022-09-01T07:58:39;5.40;;;5.10;;
31037;SDS011;17702;47.590;7.666;2022-09-01T08:01:09;6.60;;;5.95;;
31037;SDS011;17702;47.590;7.666;2022-09-01T08:03:37;6.45;;;5.38;;
31037;SDS011;17702;47.590;7.666;2022-09-01T08:06:05;5.43;;;5.03;;
31037;SDS011;17702;47.590;7.666;2022-09-01T08:08:32;5.93;;;5.32;;
31037;SDS011;17702;47.590;7.666;2022-09-01T08:10:59;5.60;;;5.13;;
31037;SDS011;17702;47.590;7.666;2022-09-01T08:13:25;8.25;;;6.60;;
31037;SDS011;17702;47.590;7.666;2022-09-01T08:15:51;5.43;;;5.07;;
31037;SDS011;17702;47.590;7.666;2022-09-01T08:18:17;6.50;;;5.05;;
31037;SDS011;17702;47.590;7.666;2022-09-01T08:20:44;5.40;;;5.00;;
31037;SDS011;17702;47.590;7.666;2022-09-01T08:23:12;7.25;;;5.18;;
31037;SDS011;17702;47.590;7.666;2022-09-01T08:28:13;5.20;;;4.70;;
31037;SDS011;17702;47.590;7.666;2022-09-01T08:30:40;4.10;;;3.80;;
31037;SDS011;17702;47.590;7.666;2022-09-01T08:33:06;4.72;;;4.40;;
31037;SDS011;17702;47.590;7.666;2022-09-01T08:35:36;6.53;;;4.35;;
31037;SDS011;17702;47.590;7.666;2022-09-01T08:38:03;3.97;;;3.78;;
31037;SDS011;17702;47.590;7.666;2022-09-01T08:40:29;5.03;;;4.43;;
31037;SDS011;17702;47.590;7.666;2022-09-01T08:48:00;4.63;;;4.35;;
31037;SDS011;17702;47.590;7.666;2022-09-01T08:50:33;4.57;;;3.72;;
31037;SDS011;17702;47.590;7.666;2022-09-01T08:53:06;4.15;;;3.50;;
31037;SDS011;17702;47.590;7.666;2022-09-01T08:55:41;4.10;;;3.70;;
31037;SDS011;17702;47.590;7.666;2022-09-01T08:58:09;7.45;;;5.05;;
31037;SDS011;17702;47.590;7.666;2022-09-01T09:00:41;3.80;;;3.55;;
31037;SDS011;17702;47.590;7.666;2022-09-01T09:16:47;6.65;;;6.03;;
31037;SDS011;17702;47.590;7.666;2022-09-01T09:19:28;4.85;;;3.53;;
31037;SDS011;17702;47.590;7.666;2022-09-01T09:21:55;4.38;;;3.38;;
31037;SDS011;17702;47.590;7.666;2022-09-01T09:24:25;3.67;;;3.38;;
31037;SDS011;17702;47.590;7.666;2022-09-01T09:27:24;4.05;;;3.85;;
31037;SDS011;17702;47.590;7.666;2022-09-01T09:32:23;3.97;;;3.70;;
31037;SDS011;17702;47.590;7.666;2022-09-01T09:35:48;6.97;;;4.00;;
31037;SDS011;17702;47.590;7.666;2022-09-01T09:38:14;4.57;;;4.28;;
31037;SDS011;17702;47.590;7.666;2022-09-01T09:43:28;3.95;;;3.53;;
31037;SDS011;17702;47.590;7.666;2022-09-01T09:51:42;3.85;;;3.17;;
31037;SDS011;17702;47.590;7.666;2022-09-01T09:54:10;3.38;;;3.05;;
31037;SDS011;17702;47.590;7.666;2022-09-01T09:56:38;4.13;;;3.88;;
31037;SDS011;17702;47.590;7.666;2022-09-01T09:59:15;4.00;;;3.60;;
31037;SDS011;17702;47.590;7.666;2022-09-01T10:01:45;3.30;;;3.00;;
31037;SDS011;17702;47.590;7.666;2022-09-01T10:04:30;3.60;;;3.40;;
31037;SDS011;17702;47.590;7.666;2022-09-01T10:06:59;3.42;;;3.17;;
31037;SDS011;17702;47.590;7.666;2022-09-01T10:11:51;3.50;;;3.08;;
31037;SDS011;17702;47.590;7.666;2022-09-01T10:16:52;4.63;;;3.60;;
31037;SDS011;17702;47.590;7.666;2022-09-01T10:19:24;3.55;;;3.35;;
31037;SDS011;17702;47.590;7.666;2022-09-01T10:21:52;3.05;;;2.85;;
31037;SDS011;17702;47.590;7.666;2022-09-01T10:26:52;4.32;;;3.58;;
31037;SDS011;17702;47.590;7.666;2022-09-01T10:29:23;3.65;;;3.45;;
31037;SDS011;17702;47.590;7.666;2022-09-01T10:31:57;3.50;;;3.20;;
31037;SDS011;17702;47.590;7.666;2022-09-01T10:34:34;3.47;;;3.15;;
31037;SDS011;17702;47.590;7.666;2022-09-01T10:37:02;3.00;;;2.80;;
31037;SDS011;17702;47.590;7.666;2022-09-01T10:39:29;3.67;;;2.80;;
31037;SDS011;17702;47.590;7.666;2022-09-01T10:41:55;2.78;;;2.67;;
31037;SDS011;17702;47.590;7.666;2022-09-01T10:44:29;3.17;;;3.00;;
31037;SDS011;17702;47.590;7.666;2022-09-01T10:47:40;2.90;;;2.70;;
31037;SDS011;17702;47.590;7.666;2022-09-01T10:55:07;3.00;;;2.80;;
31037;SDS011;17702;47.590;7.666;2022-09-01T10:57:42;3.15;;;2.95;;
31037;SDS011;17702;47.590;7.666;2022-09-01T11:16:39;3.92;;;3.50;;
31037;SDS011;17702;47.590;7.666;2022-09-01T11:19:25;2.85;;;2.75;;
31037;SDS011;17702;47.590;7.666;2022-09-01T11:24:52;3.08;;;2.88;;
31037;SDS011;17702;47.590;7.666;2022-09-01T11:38:55;3.40;;;2.80;;
31037;SDS011;17702;47.590;7.666;2022-09-01T11:44:25;3.00;;;2.70;;
31037;SDS011;17702;47.590;7.666;2022-09-01T11:47:00;2.90;;;2.70;;
31037;SDS011;17702;47.590;7.666;2022-09-01T11:49:30;3.10;;;2.90;;
31037;SDS011;17702;47.590;7.666;2022-09-01T11:51:59;3.00;;;2.80;;
31037;SDS011;17702;47.590;7.666;2022-09-01T11:54:25;3.05;;;2.95;;
31037;SDS011;17702;47.590;7.666;2022-09-01T11:56:53;3.05;;;2.75;;
31037;SDS011;17702;47.590;7.666;2022-09-01T11:59:32;2.53;;;2.42;;
31037;SDS011;17702;47.590;7.666;2022-09-01T12:02:00;2.60;;;2.40;;
31037;SDS011;17702;47.590;7.666;2022-09-01T12:04:32;2.42;;;2.30;;
31037;SDS011;17702;47.590;7.666;2022-09-01T12:07:07;2.67;;;2.47;;
31037;SDS011;17702;47.590;7.666;2022-09-01T12:15:01;3.45;;;2.45;;
31037;SDS011;17702;47.590;7.666;2022-09-01T12:17:29;2.40;;;2.30;;
31037;SDS011;17702;47.590;7.666;2022-09-01T12:19:55;2.35;;;2.25;;
31037;SDS011;17702;47.590;7.666;2022-09-01T12:22:41;3.72;;;2.47;;
31037;SDS011;17702;47.590;7.666;2022-09-01T12:25:13;3.05;;;2.55;;
31037;SDS011;17702;47.590;7.666;2022-09-01T12:30:13;7.15;;;3.50;;
31037;SDS011;17702;47.590;7.666;2022-09-01T12:32:39;10.73;;;3.25;;
31037;SDS011;17702;47.590;7.666;2022-09-01T12:35:12;2.78;;;2.55;;
31037;SDS011;17702;47.590;7.666;2022-09-01T12:37:44;2.85;;;2.40;;
31037;SDS011;17702;47.590;7.666;2022-09-01T12:40:20;3.40;;;2.00;;
31037;SDS011;17702;47.590;7.666;2022-09-01T12:42:56;3.60;;;2.60;;
31037;SDS011;17702;47.590;7.666;2022-09-01T12:48:27;4.47;;;2.10;;
31037;SDS011;17702;47.590;7.666;2022-09-01T12:51:02;2.42;;;2.33;;
31037;SDS011;17702;47.590;7.666;2022-09-01T12:54:06;3.90;;;2.17;;
31037;SDS011;17702;47.590;7.666;2022-09-01T12:56:35;2.53;;;2.30;;
31037;SDS011;17702;47.590;7.666;2022-09-01T12:59:24;2.95;;;2.22;;
31037;SDS011;17702;47.590;7.666;2022-09-01T13:01:50;2.15;;;2.05;;
31037;SDS011;17702;47.590;7.666;2022-09-01T13:06:45;1.85;;;1.77;;
31037;SDS011;17702;47.590;7.666;2022-09-01T13:09:11;3.40;;;2.13;;
31037;SDS011;17702;47.590;7.666;2022-09-01T13:11:36;2.53;;;2.10;;
31037;SDS011;17702;47.590;7.666;2022-09-01T13:14:03;2.42;;;2.22;;
31037;SDS011;17702;47.590;7.666;2022-09-01T13:16:28;1.83;;;1.73;;
31037;SDS011;17702;47.590;7.666;2022-09-01T13:18:54;2.10;;;2.00;;
31037;SDS011;17702;47.590;7.666;2022-09-01T13:21:19;2.25;;;2.08;;
31037;SDS011;17702;47.590;7.666;2022-09-01T13:23:45;2.80;;;1.98;;
31037;SDS011;17702;47.590;7.666;2022-09-01T13:26:11;2.95;;;1.92;;
31037;SDS011;17702;47.590;7.666;2022-09-01T13:28:37;1.83;;;1.73;;
31037;SDS011;17702;47.590;7.666;2022-09-01T13:31:03;2.10;;;2.00;;
31037;SDS011;17702;47.590;7.666;2022-09-01T13:33:29;3.90;;;2.45;;
31037;SDS011;17702;47.590;7.666;2022-09-01T13:35:56;2.00;;;1.90;;
31037;SDS011;17702;47.590;7.666;2022-09-01T13:38:22;2.33;;;1.88;;
31037;SDS011;17702;47.590;7.666;2022-09-01T13:40:48;2.00;;;1.90;;
31037;SDS011;17702;47.590;7.666;2022-09-01T13:43:16;4.25;;;1.77;;
31037;SDS011;17702;47.590;7.666;2022-09-01T13:45:43;2.00;;;1.90;;
31037;SDS011;17702;47.590;7.666;2022-09-01T13:48:09;2.20;;;1.88;;
31037;SDS011;17702;47.590;7.666;2022-09-01T13:50:35;4.00;;;1.92;;
31037;SDS011;17702;47.590;7.666;2022-09-01T13:53:02;2.58;;;2.00;;
31037;SDS011;17702;47.590;7.666;2022-09-01T13:55:30;2.25;;;2.08;;
31037;SDS011;17702;47.590;7.666;2022-09-01T13:57:57;1.73;;;1.63;;
31037;SDS011;17702;47.590;7.666;2022-09-01T14:00:27;2.30;;;1.70;;
31037;SDS011;17702;47.590;7.666;2022-09-01T14:02:57;2.20;;;2.10;;
31037;SDS011;17702;47.590;7.666;2022-09-01T14:05:29;4.13;;;1.45;;
31037;SDS011;17702;47.590;7.666;2022-09-01T14:07:57;2.00;;;1.90;;
31037;SDS011;17702;47.590;7.666;2022-09-01T14:10:23;4.90;;;1.60;;
31037;SDS011;17702;47.590;7.666;2022-09-01T14:12:50;6.57;;;1.85;;
31037;SDS011;17702;47.590;7.666;2022-09-01T14:15:17;2.55;;;1.70;;
31037;SDS011;17702;47.590;7.666;2022-09-01T14:17:45;2.25;;;1.80;;
31037;SDS011;17702;47.590;7.666;2022-09-01T14:20:13;1.70;;;1.60;;
31037;SDS011;17702;47.590;7.666;2022-09-01T14:22:44;2.55;;;1.65;;
31037;SDS011;17702;47.590;7.666;2022-09-01T14:25:11;2.97;;;1.80;;
31037;SDS011;17702;47.590;7.666;2022-09-01T14:27:37;1.63;;;1.52;;
31037;SDS011;17702;47.590;7.666;2022-09-01T14:30:04;2.20;;;1.98;;
31037;SDS011;17702;47.590;7.666;2022-09-01T14:32:32;1.67;;;1.58;;
31037;SDS011;17702;47.590;7.666;2022-09-01T14:34:58;1.90;;;1.80;;
31037;SDS011;17702;47.590;7.666;2022-09-01T14:37:25;2.10;;;2.00;;
31037;SDS011;17702;47.590;7.666;2022-09-01T14:39:51;2.03;;;1.85;;
31037;SDS011;17702;47.590;7.666;2022-09-01T14:42:18;1.92;;;1.80;;
31037;SDS011;17702;47.590;7.666;2022-09-01T14:44:44;3.20;;;1.77;;
31037;SDS011;17702;47.590;7.666;2022-09-01T14:47:11;2.92;;;2.00;;
31037;SDS011;17702;47.590;7.666;2022-09-01T14:49:37;1.77;;;1.67;;
31037;SDS011;17702;47.590;7.666;2022-09-01T14:52:03;2.08;;;1.98;;
31037;SDS011;17702;47.590;7.666;2022-09-01T14:54:31;2.08;;;1.80;;
31037;SDS011;17702;47.590;7.666;2022-09-01T14:57:01;1.92;;;1.83;;
31037;SDS011;17702;47.590;7.666;2022-09-01T14:59:27;2.28;;;1.70;;
31037;SDS011;17702;47.590;7.666;2022-09-01T15:01:53;2.30;;;2.08;;
31037;SDS011;17702;47.590;7.666;2022-09-01T15:04:18;2.00;;;1.90;;
31037;SDS011;17702;47.590;7.666;2022-09-01T15:06:44;6.13;;;1.80;;
31037;SDS011;17702;47.590;7.666;2022-09-01T15:09:10;1.77;;;1.67;;
31037;SDS011;17702;47.590;7.666;2022-09-01T15:11:36;1.95;;;1.85;;
31037;SDS011;17702;47.590;7.666;2022-09-01T15:14:02;2.00;;;1.83;;
31037;SDS011;17702;47.590;7.666;2022-09-01T15:16:28;4.63;;;1.77;;
31037;SDS011;17702;47.590;7.666;2022-09-01T15:18:53;1.80;;;1.70;;
31037;SDS011;17702;47.590;7.666;2022-09-01T15:21:29;2.10;;;1.90;;
31037;SDS011;17702;47.590;7.666;2022-09-01T15:23:56;1.70;;;1.60;;
31037;SDS011;17702;47.590;7.666;2022-09-01T15:26:22;1.80;;;1.70;;
31037;SDS011;17702;47.590;7.666;2022-09-01T15:28:49;1.77;;;1.67;;
31037;SDS011;17702;47.590;7.666;2022-09-01T15:31:16;2.03;;;1.92;;
31037;SDS011;17702;47.590;7.666;2022-09-01T15:33:44;2.05;;;1.95;;
31037;SDS011;17702;47.590;7.666;2022-09-01T15:36:14;1.95;;;1.77;;
31037;SDS011;17702;47.590;7.666;2022-09-01T15:38:42;2.08;;;1.92;;
31037;SDS011;17702;47.590;7.666;2022-09-01T15:41:08;3.75;;;2.30;;
31037;SDS011;17702;47.590;7.666;2022-09-01T15:43:33;2.97;;;2.08;;
31037;SDS011;17702;47.590;7.666;2022-09-01T15:45:59;2.00;;;1.90;;
31037;SDS011;17702;47.590;7.666;2022-09-01T15:48:28;2.80;;;2.60;;
31037;SDS011;17702;47.590;7.666;2022-09-01T15:53:51;1.73;;;1.63;;
31037;SDS011;17702;47.590;7.666;2022-09-01T15:56:18;3.20;;;1.98;;
31037;SDS011;17702;47.590;7.666;2022-09-01T15:58:45;2.45;;;1.80;;
31037;SDS011;17702;47.590;7.666;2022-09-01T16:01:11;1.77;;;1.67;;
31037;SDS011;17702;47.590;7.666;2022-09-01T16:03:37;2.10;;;1.90;;
31037;SDS011;17702;47.590;7.666;2022-09-01T16:06:03;1.73;;;1.63;;
31037;SDS011;17702;47.590;7.666;2022-09-01T16:08:30;2.00;;;1.90;;
31037;SDS011;17702;47.590;7.666;2022-09-01T16:10:56;2.00;;;1.83;;
31037;SDS011;17702;47.590;7.666;2022-09-01T16:13:21;1.92;;;1.70;;
31037;SDS011;17702;47.590;7.666;2022-09-01T16:15:48;2.10;;;1.90;;
31037;SDS011;17702;47.590;7.666;2022-09-01T16:18:30;2.35;;;1.80;;
31037;SDS011;17702;47.590;7.666;2022-09-01T16:21:23;2.20;;;1.92;;
31037;SDS011;17702;47.590;7.666;2022-09-01T16:23:51;2.10;;;2.00;;
31037;SDS011;17702;47.590;7.666;2022-09-01T16:26:18;2.00;;;1.90;;
31037;SDS011;17702;47.590;7.666;2022-09-01T16:28:52;2.63;;;2.28;;
31037;SDS011;17702;47.590;7.666;2022-09-01T16:31:22;2.13;;;2.00;;
31037;SDS011;17702;47.590;7.666;2022-09-01T16:33:51;2.67;;;1.90;;
31037;SDS011;17702;47.590;7.666;2022-09-01T16:36:27;2.22;;;2.13;;
31037;SDS011;17702;47.590;7.666;2022-09-01T16:39:15;2.10;;;2.00;;
31037;SDS011;17702;47.590;7.666;2022-09-01T16:42:24;3.08;;;2.88;;
31037;SDS011;17702;47.590;7.666;2022-09-01T16:56:06;1.77;;;1.67;;